Flight Briefing for CPX403

Departure Arrival
Seattle-Tacoma International Airport (KSEA)
Click to view FAA NOTAMS
Los Angeles International Airport (KLAX)
Click to view FAA NOTAMS
Departure Time Arrival Time
N/A N/A
Aircraft Distance
B757-200SF 831nm
Departure METAR Arrival METAR
KSEA 180553Z 14005KT 10SM FEW026 SCT110 03/01 A3030 RMK AO2 SLP271 T00280011 10061 20022 51012 KLAX 180553Z 31012KT 10SM FEW041 BKN110 11/02 A3001 RMK AO2 SLP161 T01060022 10133 20106 53019
Suggested Route
SUMMA1 SUMMA JINMO Q7 JAGWA BURGL IRNMN2


View recent IFR Routes data
Notes



Charts and Procedures

Charts for KSEA
No chart available
Charts for KLAX
No chart available

Ventusky Weather